Pagina principale
METAR-TAF:

METAR-TAF

Aeroporti :

Aeroporto Internazionale di Guam

Hagåtña, Guam, Stati Uniti

latitudine: 13-29N, longitudine: 144-48E, altezza: 91 m

Osservazione

Il bollettino è stato emesso 51 minuti fa, alle 04:54 UTC
Vento 4 kt da direzioni variabili
Temperature 31°C
Umidità 71%
Pressione 1011 hPa
Visibilità: 16.1 km
Poco nuvoloso ad un'altezza di 2300 ft

METAR: PGUM 180454Z VRB04KT 10SM FEW023 31/25 A2986 RMK AO2 SLP103 T03060250

Ora: 15:45 (05:45 UTC)

Previsione

Il bollettino è stato emesso 6 minuti fa, alle 05:39 UTC
Previsione valida dal 18 alle 06 UTC al 19 alle 12 UTC
Vento 7 kt da est/sud-est
Visibilità: 10 km
Poco nuvoloso ad un'altezza di 2000 ft

TAF: PGUM 180539Z 1806/1912 12007KT P6SM FEW020

Osservazioni e previsioni meteorologiche di più di 4000 aeroporti (messaggi METAR e TAF).

Le stazioni disponibili sono rappresentate dai dischi gialli e rossi sulla carta.

Puntare il mouse per vedere il nome della stazione.

Clicca sopra per visualizzare le osservazioni e previsioni meteorologiche.

Per cambiare la mappa : fare clic sui pulsanti verdi con una croce nera per ingrandire, il pulsante verde con un trattino per diminuire, o sulla freccia verde per le mappe adiacenti.


METAR-TAF: